createdAt,value
2023-03-24T00:02:16.602Z,15.80
2023-03-24T00:04:47.326Z,16.00
2023-03-24T00:07:16.207Z,16.00
2023-03-24T00:09:46.337Z,16.40
2023-03-24T00:12:14.613Z,16.20
2023-03-24T00:14:48.328Z,16.70
2023-03-24T00:17:17.699Z,15.70
2023-03-24T00:19:46.509Z,15.20
2023-03-24T00:23:33.150Z,16.60
2023-03-24T00:26:38.527Z,15.50
2023-03-24T00:29:11.084Z,16.50
2023-03-24T00:31:40.564Z,14.60
2023-03-24T00:34:09.241Z,15.80
2023-03-24T00:36:39.664Z,16.60
2023-03-24T00:39:08.589Z,15.80
2023-03-24T00:41:47.905Z,17.10
2023-03-24T00:45:13.207Z,16.00
2023-03-24T00:48:20.498Z,16.20
2023-03-24T00:50:49.410Z,17.00
2023-03-24T00:53:18.183Z,16.60
2023-03-24T00:55:50.312Z,17.20
2023-03-24T00:59:15.331Z,16.70
2023-03-24T01:02:02.985Z,15.90
2023-03-24T01:04:31.912Z,16.70
2023-03-24T01:07:00.253Z,17.40
2023-03-24T01:09:28.839Z,16.20
2023-03-24T01:11:58.872Z,17.10
2023-03-24T01:14:27.646Z,16.60
2023-03-24T01:18:13.648Z,17.40
2023-03-24T01:21:18.464Z,17.70
2023-03-24T01:23:47.108Z,18.00
2023-03-24T01:26:16.256Z,17.50
2023-03-24T01:28:44.448Z,17.10
2023-03-24T01:31:13.002Z,18.30
2023-03-24T01:33:41.291Z,20.60
2023-03-24T01:36:10.474Z,19.30
2023-03-24T01:38:38.827Z,19.80
2023-03-24T01:41:07.702Z,20.20
2023-03-24T01:43:36.655Z,18.40
2023-03-24T01:46:18.891Z,18.90
2023-03-24T01:49:08.138Z,19.00
2023-03-24T01:51:40.893Z,20.00
2023-03-24T01:54:17.168Z,19.50
2023-03-24T01:56:49.437Z,19.50
2023-03-24T01:59:21.000Z,19.40
2023-03-24T02:02:04.238Z,18.80
2023-03-24T02:04:44.958Z,19.50
2023-03-24T02:07:48.274Z,19.20
2023-03-24T02:10:18.230Z,18.90
2023-03-24T02:12:46.734Z,19.60
2023-03-24T02:15:17.654Z,19.50
2023-03-24T02:17:54.790Z,18.60
2023-03-24T02:20:39.385Z,18.10
2023-03-24T02:23:41.655Z,18.60
2023-03-24T02:26:29.496Z,19.00
2023-03-24T02:29:06.674Z,17.50
2023-03-24T02:32:00.492Z,18.60
2023-03-24T02:34:30.698Z,18.50
2023-03-24T02:37:18.895Z,18.70
2023-03-24T02:40:08.921Z,17.90
2023-03-24T02:42:57.256Z,19.30
2023-03-24T02:45:32.705Z,18.30
2023-03-24T02:48:09.221Z,18.40
2023-03-24T02:51:05.108Z,18.50
2023-03-24T02:53:56.111Z,17.30
2023-03-24T02:56:58.688Z,17.60
2023-03-24T02:59:49.585Z,17.60
2023-03-24T03:02:47.275Z,17.20
2023-03-24T03:05:22.698Z,17.50
2023-03-24T03:07:51.689Z,17.50
2023-03-24T03:10:29.961Z,17.40
2023-03-24T03:13:02.786Z,16.60
2023-03-24T03:15:43.413Z,18.00
2023-03-24T03:18:16.644Z,17.60
2023-03-24T03:20:54.922Z,17.90
2023-03-24T03:23:31.538Z,17.60
2023-03-24T03:26:06.201Z,17.00
2023-03-24T03:28:38.222Z,17.20
2023-03-24T03:31:08.538Z,15.50
2023-03-24T03:34:06.441Z,17.40
2023-03-24T03:36:38.606Z,16.60
2023-03-24T03:39:16.286Z,16.30
2023-03-24T03:41:45.694Z,17.00
2023-03-24T03:44:14.385Z,16.70
2023-03-24T03:46:43.195Z,16.40
2023-03-24T03:49:13.287Z,17.20
2023-03-24T03:51:47.914Z,17.10
2023-03-24T03:54:17.881Z,16.50
2023-03-24T03:56:48.622Z,18.00
2023-03-24T03:59:25.653Z,16.70
2023-03-24T04:01:54.662Z,17.00
2023-03-24T04:06:18.012Z,16.80
2023-03-24T04:08:48.247Z,16.70
2023-03-24T04:11:30.129Z,16.70
2023-03-24T04:14:31.994Z,17.80
2023-03-24T04:17:32.857Z,16.30
2023-03-24T04:20:24.561Z,16.90
2023-03-24T04:22:54.317Z,16.70
2023-03-24T04:25:42.472Z,15.60
2023-03-24T04:28:20.425Z,16.60
2023-03-24T04:30:52.593Z,16.50
2023-03-24T04:33:30.704Z,16.50
2023-03-24T04:36:18.376Z,17.90
2023-03-24T04:39:06.775Z,16.10
2023-03-24T04:41:44.219Z,16.40
2023-03-24T04:44:22.193Z,16.60
2023-03-24T04:47:09.187Z,16.30
2023-03-24T04:49:40.034Z,16.30
2023-03-24T04:52:09.529Z,15.30
2023-03-24T04:54:38.707Z,15.10
2023-03-24T04:57:07.896Z,16.00
2023-03-24T04:59:46.356Z,15.80
2023-03-24T05:02:15.857Z,15.80
2023-03-24T05:04:51.274Z,16.70
2023-03-24T05:07:27.450Z,15.90
2023-03-24T05:10:00.661Z,16.40
2023-03-24T05:12:38.389Z,16.40
2023-03-24T05:15:18.598Z,17.10
2023-03-24T05:17:48.325Z,16.20
2023-03-24T05:20:20.997Z,16.10
2023-03-24T05:22:50.905Z,17.00
2023-03-24T05:25:20.213Z,14.60
2023-03-24T05:27:49.285Z,16.10
2023-03-24T05:30:21.705Z,15.10
2023-03-24T05:32:52.387Z,16.20
2023-03-24T05:35:20.757Z,15.40
2023-03-24T05:37:49.928Z,16.00
2023-03-24T05:40:18.532Z,15.70
2023-03-24T05:42:54.019Z,16.60
2023-03-24T05:47:59.693Z,14.50
2023-03-24T05:50:38.307Z,15.50
2023-03-24T05:53:07.295Z,14.40
2023-03-24T05:55:58.929Z,15.80
2023-03-24T05:58:51.672Z,15.60
2023-03-24T06:01:20.259Z,14.80
2023-03-24T06:03:49.844Z,14.60
2023-03-24T06:06:18.857Z,13.90
2023-03-24T06:08:54.639Z,15.30
2023-03-24T06:11:25.039Z,14.40
2023-03-24T06:14:00.689Z,13.90
2023-03-24T06:16:39.243Z,14.80
2023-03-24T06:19:08.407Z,15.00
2023-03-24T06:21:55.026Z,15.20
2023-03-24T06:24:29.744Z,14.30
2023-03-24T06:27:03.669Z,14.90
2023-03-24T06:29:34.137Z,14.90
2023-03-24T06:32:02.556Z,15.00
2023-03-24T06:34:32.479Z,14.80
2023-03-24T06:37:17.246Z,14.20
2023-03-24T06:39:45.985Z,15.30
2023-03-24T06:42:14.868Z,15.10
2023-03-24T06:44:43.502Z,15.20
2023-03-24T06:47:12.100Z,15.00
2023-03-24T06:49:42.277Z,14.10
2023-03-24T06:52:10.403Z,14.80
2023-03-24T06:54:45.008Z,13.80
2023-03-24T06:57:14.649Z,13.90
2023-03-24T07:00:10.518Z,13.30
2023-03-24T07:02:50.129Z,13.90
2023-03-24T07:05:19.231Z,14.80
2023-03-24T07:10:41.318Z,13.60
2023-03-24T07:13:09.971Z,14.80
2023-03-24T07:15:38.560Z,14.50
2023-03-24T07:18:10.169Z,13.70
2023-03-24T07:20:54.102Z,14.60
2023-03-24T07:23:28.229Z,13.20
2023-03-24T07:26:05.174Z,13.80
2023-03-24T07:28:48.629Z,13.50
2023-03-24T07:31:27.181Z,14.00
2023-03-24T07:34:01.997Z,13.70
2023-03-24T07:36:30.809Z,13.20
2023-03-24T07:38:59.449Z,14.10
2023-03-24T07:41:33.054Z,14.20
2023-03-24T07:44:04.195Z,15.40
2023-03-24T07:46:42.613Z,14.40
2023-03-24T07:49:19.298Z,14.40
2023-03-24T07:52:00.259Z,13.60
2023-03-24T07:54:38.363Z,14.90
2023-03-24T07:57:08.656Z,14.80
2023-03-24T07:59:40.499Z,14.20
2023-03-24T08:02:19.809Z,15.20
2023-03-24T08:04:56.856Z,14.40
2023-03-24T08:07:42.918Z,14.40
2023-03-24T08:10:13.497Z,14.10
2023-03-24T08:12:45.597Z,15.10
2023-03-24T08:15:14.671Z,15.60
2023-03-24T08:17:43.390Z,15.70
2023-03-24T08:20:21.495Z,14.20
2023-03-24T08:22:50.261Z,14.80
2023-03-24T08:25:19.344Z,14.70
2023-03-24T08:27:51.092Z,14.40
2023-03-24T08:30:21.162Z,14.50
2023-03-24T08:32:54.214Z,15.40
2023-03-24T08:35:25.271Z,15.60
2023-03-24T08:37:53.628Z,14.10
2023-03-24T08:40:24.460Z,14.30
2023-03-24T08:43:00.352Z,15.40
2023-03-24T08:45:30.719Z,14.50
2023-03-24T08:48:01.486Z,16.60
2023-03-24T08:50:34.617Z,15.10
2023-03-24T08:53:04.288Z,15.40
2023-03-24T08:55:33.265Z,14.40
2023-03-24T08:58:01.853Z,16.20
2023-03-24T09:00:30.482Z,16.50
2023-03-24T09:03:07.774Z,16.10
2023-03-24T09:05:44.402Z,16.00
2023-03-24T09:08:23.526Z,16.10
2023-03-24T09:10:51.911Z,15.10
2023-03-24T09:13:21.110Z,15.70
2023-03-24T09:15:52.370Z,16.40
2023-03-24T09:18:20.932Z,14.50
2023-03-24T09:20:50.263Z,15.30
2023-03-24T09:23:19.702Z,15.40
2023-03-24T09:25:50.737Z,15.60
2023-03-24T09:28:24.383Z,14.80
2023-03-24T09:30:59.630Z,15.00
2023-03-24T09:33:29.722Z,15.30
2023-03-24T09:36:00.065Z,15.30
2023-03-24T09:38:30.824Z,15.60
2023-03-24T09:41:04.301Z,15.10
2023-03-24T09:43:40.972Z,15.40
2023-03-24T09:48:37.018Z,14.80
2023-03-24T09:51:13.608Z,13.20
2023-03-24T09:54:00.675Z,14.50
2023-03-24T09:56:30.046Z,13.80
2023-03-24T09:59:01.207Z,13.10
2023-03-24T10:01:29.740Z,12.70
2023-03-24T10:03:59.155Z,11.90
2023-03-24T10:06:38.656Z,12.10
2023-03-24T10:09:27.884Z,12.00
2023-03-24T10:12:04.931Z,11.60
2023-03-24T10:14:44.910Z,9.80
2023-03-24T10:17:36.599Z,10.90
2023-03-24T10:20:24.449Z,10.30
2023-03-24T10:23:11.161Z,9.30
2023-03-24T10:25:54.897Z,9.50
2023-03-24T10:28:26.247Z,9.30
2023-03-24T10:30:55.962Z,8.90
2023-03-24T10:33:24.146Z,8.30
2023-03-24T10:42:48.977Z,7.90
2023-03-24T10:45:25.144Z,7.90
2023-03-24T10:47:54.830Z,9.20
2023-03-24T10:50:27.337Z,8.30
2023-03-24T10:52:55.965Z,9.10
2023-03-24T10:55:32.486Z,8.50
2023-03-24T10:58:00.686Z,8.10
2023-03-24T11:00:31.801Z,7.90
2023-03-24T11:03:08.537Z,8.00
2023-03-24T11:05:38.449Z,7.60
2023-03-24T11:08:15.166Z,7.20
2023-03-24T11:10:45.305Z,6.80
2023-03-24T11:13:23.511Z,6.30
2023-03-24T11:16:17.204Z,6.70
2023-03-24T11:19:04.495Z,6.60
2023-03-24T11:21:35.513Z,7.00
2023-03-24T11:24:09.616Z,6.20
2023-03-24T11:26:39.061Z,7.20
2023-03-24T11:29:30.580Z,7.30
2023-03-24T11:32:03.498Z,7.10
2023-03-24T11:34:34.569Z,6.80
2023-03-24T11:37:04.059Z,7.30
2023-03-24T11:39:34.303Z,7.10
2023-03-24T11:42:02.450Z,7.10
2023-03-24T11:44:45.173Z,7.10
2023-03-24T11:47:31.143Z,7.80
2023-03-24T11:50:11.493Z,7.50
2023-03-24T11:52:48.166Z,7.10
2023-03-24T11:55:18.108Z,7.10
2023-03-24T11:57:58.209Z,7.70
2023-03-24T12:00:36.126Z,7.60
2023-03-24T12:03:26.630Z,7.30
2023-03-24T12:06:28.318Z,7.00
2023-03-24T12:08:59.348Z,7.10
2023-03-24T12:11:55.031Z,7.70
2023-03-24T12:14:35.062Z,6.30
2023-03-24T12:17:14.717Z,7.50
2023-03-24T12:19:52.313Z,7.40
2023-03-24T12:22:56.005Z,6.50
2023-03-24T12:25:46.088Z,7.20
2023-03-24T12:28:23.724Z,7.00
2023-03-24T12:31:19.596Z,7.50
2023-03-24T12:34:25.369Z,6.70
2023-03-24T12:37:07.936Z,6.50
2023-03-24T12:39:45.619Z,6.20
2023-03-24T12:42:14.597Z,7.00
2023-03-24T12:44:48.370Z,5.50
2023-03-24T12:47:19.674Z,5.20
2023-03-24T12:49:54.474Z,5.50
2023-03-24T12:55:14.390Z,5.80
2023-03-24T12:57:48.840Z,5.10
2023-03-24T13:00:23.365Z,5.30
2023-03-24T13:02:53.293Z,5.50
2023-03-24T13:05:24.390Z,4.90
2023-03-24T13:07:54.721Z,4.30
2023-03-24T13:10:26.031Z,4.90
2023-03-24T13:13:00.860Z,5.00
2023-03-24T13:15:34.983Z,5.50
2023-03-24T13:18:09.708Z,5.40
2023-03-24T13:20:51.055Z,5.60
2023-03-24T13:23:28.448Z,5.60
2023-03-24T13:25:56.611Z,6.10
2023-03-24T13:28:35.702Z,5.10
2023-03-24T13:31:03.828Z,5.80
2023-03-24T13:33:32.421Z,5.90
2023-03-24T13:36:45.233Z,5.70
2023-03-24T13:39:20.524Z,5.80
2023-03-24T13:41:56.333Z,5.80
2023-03-24T13:44:26.415Z,4.90
2023-03-24T13:47:10.158Z,5.30
2023-03-24T13:49:40.812Z,5.20
2023-03-24T13:52:46.039Z,4.80
2023-03-24T13:55:18.710Z,5.20
2023-03-24T13:58:01.778Z,5.40
2023-03-24T14:00:34.127Z,5.50
2023-03-24T14:03:06.149Z,5.20
2023-03-24T14:05:42.166Z,5.40
2023-03-24T14:10:42.977Z,5.80
2023-03-24T14:13:14.105Z,5.10
2023-03-24T14:15:54.237Z,5.10
2023-03-24T14:18:26.097Z,5.00
2023-03-24T14:20:58.474Z,5.20
2023-03-24T14:23:38.773Z,5.40
2023-03-24T14:26:19.762Z,5.50
2023-03-24T14:28:48.870Z,5.40
2023-03-24T14:31:24.511Z,5.50
2023-03-24T14:33:52.911Z,4.70
2023-03-24T14:36:31.012Z,5.50
2023-03-24T14:39:13.804Z,5.50
2023-03-24T14:41:42.205Z,4.90
2023-03-24T14:44:11.573Z,5.20
2023-03-24T14:46:48.228Z,5.60
2023-03-24T14:49:24.824Z,5.60
2023-03-24T14:52:29.080Z,5.70
2023-03-24T14:55:06.054Z,5.00
2023-03-24T14:57:41.961Z,5.40
2023-03-24T15:00:32.420Z,5.40
2023-03-24T15:03:12.091Z,5.00
2023-03-24T15:05:40.627Z,5.60
2023-03-24T15:08:18.514Z,5.00
2023-03-24T15:10:47.537Z,5.70
2023-03-24T15:13:49.656Z,5.60
2023-03-24T15:16:21.132Z,5.70
2023-03-24T15:19:02.374Z,5.50
2023-03-24T15:21:34.995Z,5.50
2023-03-24T15:24:22.260Z,6.10
2023-03-24T15:26:53.462Z,5.60
2023-03-24T15:29:21.929Z,5.90
2023-03-24T15:31:50.277Z,5.80
2023-03-24T15:34:31.593Z,5.20
2023-03-24T15:37:05.524Z,5.50
2023-03-24T15:39:39.489Z,5.80
2023-03-24T15:42:09.675Z,6.20
2023-03-24T15:44:39.518Z,5.60
2023-03-24T15:47:16.707Z,5.80
2023-03-24T15:50:13.746Z,5.40
2023-03-24T15:52:41.866Z,6.30
2023-03-24T15:55:34.923Z,6.30
2023-03-24T15:58:24.226Z,5.90
2023-03-24T16:00:53.318Z,6.30
2023-03-24T16:03:26.615Z,5.90
2023-03-24T16:05:56.293Z,6.30
2023-03-24T16:08:35.861Z,6.20
2023-03-24T16:11:11.181Z,6.00
2023-03-24T16:13:47.684Z,7.40
2023-03-24T16:16:24.863Z,6.90
2023-03-24T16:18:53.760Z,5.90
2023-03-24T16:21:22.174Z,6.70
2023-03-24T16:23:53.709Z,6.80
2023-03-24T16:26:26.374Z,6.20
2023-03-24T16:29:14.416Z,7.00
2023-03-24T16:31:44.298Z,7.50
2023-03-24T16:34:12.387Z,7.60
2023-03-24T16:36:40.444Z,7.10
2023-03-24T16:39:15.955Z,7.00
2023-03-24T16:41:46.804Z,7.30
2023-03-24T16:44:17.505Z,7.70
2023-03-24T16:46:46.884Z,8.50
2023-03-24T16:49:17.137Z,7.90
2023-03-24T16:51:45.773Z,8.40
2023-03-24T16:54:15.115Z,9.50
2023-03-24T16:56:44.209Z,9.00
2023-03-24T16:59:15.050Z,9.60
2023-03-24T17:01:46.344Z,9.80
2023-03-24T17:04:20.111Z,9.70
2023-03-24T17:06:52.972Z,10.20
2023-03-24T17:09:23.080Z,8.90
2023-03-24T17:11:56.197Z,9.80
2023-03-24T17:14:24.850Z,9.00
2023-03-24T17:16:54.229Z,9.40
2023-03-24T17:22:38.473Z,10.40
2023-03-24T17:25:13.337Z,9.90
2023-03-24T17:27:41.745Z,9.80
2023-03-24T17:30:18.323Z,8.60
2023-03-24T17:32:48.065Z,10.40
2023-03-24T17:35:22.052Z,12.10
2023-03-24T17:37:51.394Z,9.80
2023-03-24T17:40:20.503Z,9.80
2023-03-24T17:42:52.116Z,10.30
2023-03-24T17:45:21.266Z,14.30
2023-03-24T17:47:55.558Z,13.50
2023-03-24T17:50:38.516Z,13.20
2023-03-24T17:53:10.597Z,12.60
2023-03-24T17:55:39.395Z,12.60
2023-03-24T17:58:08.922Z,14.90
2023-03-24T18:00:41.536Z,13.40
2023-03-24T18:03:11.399Z,13.50
2023-03-24T18:05:44.983Z,12.70
2023-03-24T18:08:13.162Z,12.50
2023-03-24T18:10:41.201Z,12.40
2023-03-24T18:13:15.443Z,11.30
2023-03-24T18:15:43.631Z,12.20
2023-03-24T18:18:18.253Z,13.00
2023-03-24T18:20:53.110Z,12.80
2023-03-24T18:23:23.646Z,14.90
2023-03-24T18:26:03.898Z,14.70
2023-03-24T18:28:38.952Z,14.20
2023-03-24T18:31:16.282Z,14.20
2023-03-24T18:33:46.245Z,14.10
2023-03-24T18:36:18.473Z,13.30
2023-03-24T18:38:47.891Z,12.20
2023-03-24T18:41:18.632Z,13.70
2023-03-24T18:43:48.315Z,13.10
2023-03-24T18:46:22.065Z,13.30
2023-03-24T18:48:53.219Z,12.60
2023-03-24T18:51:21.690Z,12.70
2023-03-24T18:53:50.296Z,13.40
2023-03-24T18:56:18.910Z,12.90
2023-03-24T18:58:48.720Z,12.70
2023-03-24T19:01:23.127Z,11.50
2023-03-24T19:03:52.400Z,13.50
2023-03-24T19:06:21.661Z,12.70
2023-03-24T19:08:51.112Z,12.20
2023-03-24T19:11:19.390Z,11.90
2023-03-24T19:13:50.670Z,13.10
2023-03-24T19:16:19.618Z,11.60
2023-03-24T19:18:48.730Z,11.00
2023-03-24T19:21:19.837Z,14.30
2023-03-24T19:23:49.948Z,12.80
2023-03-24T19:26:22.571Z,14.00
2023-03-24T19:28:53.319Z,13.00
2023-03-24T19:31:21.630Z,13.50
2023-03-24T19:33:51.706Z,13.40
2023-03-24T19:36:19.959Z,14.10
2023-03-24T19:38:48.008Z,12.60
2023-03-24T19:41:16.366Z,12.30
2023-03-24T19:43:47.616Z,12.80
2023-03-24T19:46:22.049Z,13.30
2023-03-24T19:48:50.767Z,12.50
2023-03-24T19:51:32.817Z,13.50
2023-03-24T19:54:01.177Z,12.60
2023-03-24T19:56:29.640Z,13.50
2023-03-24T19:58:57.933Z,14.70
2023-03-24T20:01:26.434Z,15.60
2023-03-24T20:03:54.700Z,15.20
2023-03-24T20:06:23.295Z,13.50
2023-03-24T20:08:51.822Z,14.50
2023-03-24T20:11:19.985Z,13.10
2023-03-24T20:13:48.395Z,13.10
2023-03-24T20:16:17.802Z,13.60
2023-03-24T20:18:45.987Z,13.10
2023-03-24T20:21:19.032Z,13.00
2023-03-24T20:23:47.458Z,13.80
2023-03-24T20:26:21.929Z,13.10
2023-03-24T20:28:51.347Z,12.60
2023-03-24T20:31:19.720Z,13.60
2023-03-24T20:33:49.208Z,13.50
2023-03-24T20:36:17.511Z,13.50
2023-03-24T20:38:45.899Z,13.80
2023-03-24T20:41:14.058Z,14.30
2023-03-24T20:43:42.680Z,13.50
2023-03-24T20:46:17.347Z,15.00
2023-03-24T20:48:46.312Z,16.90
2023-03-24T20:51:14.751Z,17.80
2023-03-24T20:53:44.955Z,17.20
2023-03-24T20:56:15.212Z,18.20
2023-03-24T20:58:48.023Z,20.60
2023-03-24T21:01:24.069Z,21.30
2023-03-24T21:03:52.885Z,23.10
2023-03-24T21:06:21.191Z,23.30
2023-03-24T21:08:49.480Z,25.30
2023-03-24T21:11:20.852Z,27.10
2023-03-24T21:13:49.278Z,27.80
2023-03-24T21:16:19.741Z,28.80
2023-03-24T21:18:51.416Z,26.60
2023-03-24T21:21:20.587Z,28.20
2023-03-24T21:23:48.769Z,26.70
2023-03-24T21:26:18.303Z,25.40
2023-03-24T21:28:47.192Z,24.00
2023-03-24T21:31:24.168Z,24.70
2023-03-24T21:33:52.903Z,24.70
2023-03-24T21:36:21.412Z,25.90
2023-03-24T21:38:50.060Z,24.90
2023-03-24T21:41:18.808Z,25.50
2023-03-24T21:43:51.233Z,26.00
2023-03-24T21:46:26.458Z,24.40
2023-03-24T21:48:59.596Z,23.60
2023-03-24T21:51:37.009Z,24.40
2023-03-24T21:54:15.176Z,23.00
2023-03-24T21:56:44.139Z,22.10
2023-03-24T21:59:12.952Z,22.40
2023-03-24T22:01:42.892Z,22.00
2023-03-24T22:04:11.243Z,22.20
2023-03-24T22:06:40.144Z,21.80
2023-03-24T22:09:10.466Z,21.40
2023-03-24T22:11:43.018Z,20.70
2023-03-24T22:14:18.986Z,21.80
2023-03-24T22:16:47.438Z,20.20
2023-03-24T22:19:15.776Z,21.30
2023-03-24T22:21:44.067Z,20.20
2023-03-24T22:24:12.591Z,20.30
2023-03-24T22:26:40.671Z,19.80
2023-03-24T22:29:12.987Z,19.80
2023-03-24T22:31:43.637Z,19.10
2023-03-24T22:34:14.001Z,19.90
2023-03-24T22:36:43.475Z,18.30
2023-03-24T22:39:11.816Z,19.70
2023-03-24T22:41:44.038Z,19.30
2023-03-24T22:44:12.403Z,19.40
2023-03-24T22:46:40.731Z,18.20
2023-03-24T22:49:09.637Z,18.10
2023-03-24T22:51:37.822Z,18.10
2023-03-24T22:54:06.640Z,18.80
2023-03-24T22:56:35.449Z,19.60
2023-03-24T23:11:12.440Z,17.90
2023-03-24T23:14:06.301Z,18.70
2023-03-24T23:16:35.848Z,18.40
2023-03-24T23:19:09.728Z,18.20
2023-03-24T23:21:39.570Z,18.20
2023-03-24T23:24:08.006Z,18.80
2023-03-24T23:26:36.914Z,19.50
2023-03-24T23:29:06.112Z,19.60
2023-03-24T23:31:36.018Z,19.90
2023-03-24T23:34:07.701Z,18.70
2023-03-24T23:36:36.064Z,19.20
2023-03-24T23:39:05.925Z,19.40
2023-03-24T23:41:36.116Z,18.00
2023-03-24T23:44:04.383Z,18.40
2023-03-24T23:46:33.803Z,17.70
2023-03-24T23:49:02.063Z,17.30
2023-03-24T23:51:31.556Z,16.80
2023-03-24T23:53:59.852Z,17.00
2023-03-24T23:56:36.826Z,16.10
2023-03-24T23:59:06.247Z,16.60
